createdAt,value
2017-11-30T00:02:25.900Z,23.57
2017-11-30T00:04:54.171Z,23.13
2017-11-30T00:07:22.417Z,12.93
2017-11-30T00:09:50.651Z,11.20
2017-11-30T00:12:19.679Z,15.90
2017-11-30T00:14:47.926Z,15.43
2017-11-30T00:17:16.363Z,17.73
2017-11-30T00:19:44.836Z,14.37
2017-11-30T00:22:13.087Z,14.10
2017-11-30T00:24:41.323Z,15.03
2017-11-30T00:27:10.360Z,16.20
2017-11-30T00:29:38.600Z,18.43
2017-11-30T00:32:07.611Z,18.13
2017-11-30T00:34:35.879Z,19.20
2017-11-30T00:37:04.125Z,19.93
2017-11-30T00:39:32.363Z,17.07
2017-11-30T00:42:01.155Z,18.60
2017-11-30T00:44:33.896Z,14.67
2017-11-30T00:47:02.935Z,13.90
2017-11-30T00:49:31.198Z,14.83
2017-11-30T00:51:59.447Z,16.17
2017-11-30T00:54:27.724Z,17.40
2017-11-30T00:56:55.967Z,15.50
2017-11-30T00:59:24.379Z,21.67
2017-11-30T01:01:53.499Z,16.63
2017-11-30T01:04:21.751Z,16.17
2017-11-30T01:06:50.768Z,13.10
2017-11-30T01:09:19.041Z,14.00
2017-11-30T01:11:47.292Z,13.30
2017-11-30T01:14:16.462Z,14.83
2017-11-30T01:16:44.755Z,15.37
2017-11-30T01:19:12.989Z,15.07
2017-11-30T01:21:41.291Z,13.40
2017-11-30T01:24:09.628Z,14.90
2017-11-30T01:26:37.895Z,13.27
2017-11-30T01:29:06.153Z,14.07
2017-11-30T01:31:35.202Z,14.30
2017-11-30T01:34:03.445Z,18.73
2017-11-30T01:36:31.695Z,15.07
2017-11-30T01:38:59.967Z,17.57
2017-11-30T01:41:28.979Z,18.80
2017-11-30T01:43:57.999Z,18.40
2017-11-30T01:46:27.003Z,16.53
2017-11-30T01:48:55.251Z,21.30
2017-11-30T01:51:23.504Z,17.47
2017-11-30T01:53:51.788Z,19.33
2017-11-30T01:56:20.797Z,20.20
2017-11-30T01:58:49.804Z,19.60
2017-11-30T02:01:18.493Z,20.90
2017-11-30T02:03:46.739Z,22.40
2017-11-30T02:06:14.996Z,19.50
2017-11-30T02:08:43.643Z,20.30
2017-11-30T02:11:11.887Z,21.20
2017-11-30T02:13:40.140Z,21.37
2017-11-30T02:16:08.416Z,23.27
2017-11-30T02:18:36.666Z,22.53
2017-11-30T02:21:04.907Z,19.70
2017-11-30T02:23:33.184Z,17.73
2017-11-30T02:26:01.611Z,20.40
2017-11-30T02:28:29.864Z,20.30
2017-11-30T02:30:58.444Z,20.90
2017-11-30T02:33:26.694Z,21.60
2017-11-30T02:35:55.120Z,20.80
2017-11-30T02:38:23.395Z,18.07
2017-11-30T02:40:51.641Z,17.13
2017-11-30T02:43:19.891Z,18.20
2017-11-30T02:45:48.156Z,20.90
2017-11-30T02:48:16.406Z,17.60
2017-11-30T02:50:44.659Z,22.50
2017-11-30T02:53:13.016Z,19.47
2017-11-30T02:55:41.263Z,20.80
2017-11-30T02:58:10.275Z,18.70
2017-11-30T03:00:39.308Z,23.33
2017-11-30T03:03:07.950Z,18.67
2017-11-30T03:05:36.955Z,21.20
2017-11-30T03:08:05.235Z,22.33
2017-11-30T03:10:33.655Z,29.80
2017-11-30T03:13:01.894Z,22.80
2017-11-30T03:15:30.504Z,21.07
2017-11-30T03:17:58.752Z,22.80
2017-11-30T03:20:26.998Z,22.33
2017-11-30T03:22:56.031Z,25.33
2017-11-30T03:25:24.283Z,20.83
2017-11-30T03:27:53.300Z,24.50
2017-11-30T03:30:21.578Z,23.20
2017-11-30T03:32:49.822Z,23.27
2017-11-30T03:35:18.841Z,23.57
2017-11-30T03:37:47.303Z,24.53
2017-11-30T03:40:15.547Z,23.57
2017-11-30T03:42:43.795Z,24.57
2017-11-30T03:45:12.067Z,25.63
2017-11-30T03:47:40.311Z,24.13
2017-11-30T03:50:09.323Z,27.23
2017-11-30T03:52:37.596Z,23.50
2017-11-30T03:55:05.840Z,25.07
2017-11-30T03:57:34.090Z,29.17
2017-11-30T04:00:02.714Z,25.00
2017-11-30T04:02:30.958Z,28.33
2017-11-30T04:04:59.574Z,37.13
2017-11-30T04:07:28.625Z,28.67
2017-11-30T04:09:59.071Z,27.30
2017-11-30T04:12:27.315Z,30.57
2017-11-30T04:14:55.591Z,27.10
2017-11-30T04:17:23.834Z,30.10
2017-11-30T04:19:52.079Z,33.10
2017-11-30T04:22:20.731Z,31.53
2017-11-30T04:24:48.990Z,29.20
2017-11-30T04:27:17.232Z,27.87
2017-11-30T04:29:45.507Z,31.67
2017-11-30T04:32:14.519Z,27.77
2017-11-30T04:34:43.536Z,27.90
2017-11-30T04:37:12.235Z,27.27
2017-11-30T04:39:40.474Z,30.20
2017-11-30T04:42:08.719Z,27.10
2017-11-30T04:44:37.355Z,29.13
2017-11-30T04:47:05.603Z,31.80
2017-11-30T04:49:33.859Z,27.17
2017-11-30T04:52:02.128Z,28.77
2017-11-30T04:54:30.380Z,29.57
2017-11-30T04:56:58.627Z,29.97
2017-11-30T04:59:26.903Z,28.33
2017-11-30T05:01:55.157Z,30.20
2017-11-30T05:04:23.448Z,25.87
2017-11-30T05:06:53.086Z,28.70
2017-11-30T05:09:21.336Z,28.47
2017-11-30T05:11:49.579Z,26.37
2017-11-30T05:14:17.847Z,24.20
2017-11-30T05:16:46.096Z,28.13
2017-11-30T05:19:14.355Z,25.77
2017-11-30T05:21:42.623Z,27.80
2017-11-30T05:24:11.059Z,30.17
2017-11-30T05:26:39.320Z,23.77
2017-11-30T05:29:07.902Z,28.47
2017-11-30T05:31:36.147Z,25.97
2017-11-30T05:34:04.400Z,30.93
2017-11-30T05:36:32.756Z,30.23
2017-11-30T05:39:00.994Z,29.00
2017-11-30T05:41:29.231Z,27.20
2017-11-30T05:43:57.503Z,25.77
2017-11-30T05:46:26.526Z,24.70
2017-11-30T05:48:54.763Z,28.80
2017-11-30T05:51:23.316Z,26.83
2017-11-30T05:53:51.562Z,27.43
2017-11-30T05:56:19.806Z,31.57
2017-11-30T05:58:49.927Z,31.23
2017-11-30T06:01:18.948Z,23.90
2017-11-30T06:03:47.190Z,24.40
2017-11-30T06:06:15.475Z,28.20
2017-11-30T06:08:43.863Z,28.10
2017-11-30T06:11:12.892Z,34.33
2017-11-30T06:13:41.231Z,27.97
2017-11-30T06:16:10.249Z,33.23
2017-11-30T06:18:38.524Z,27.87
2017-11-30T06:21:06.800Z,28.63
2017-11-30T06:23:35.051Z,28.70
2017-11-30T06:26:04.075Z,24.77
2017-11-30T06:28:32.367Z,29.37
2017-11-30T06:31:00.617Z,26.03
2017-11-30T06:33:28.995Z,27.37
2017-11-30T06:35:57.440Z,18.83
2017-11-30T06:38:25.767Z,18.97
2017-11-30T06:40:56.040Z,22.77
2017-11-30T06:43:24.314Z,18.40
2017-11-30T06:45:52.561Z,22.60
2017-11-30T06:48:20.823Z,21.40
2017-11-30T06:50:49.091Z,21.63
2017-11-30T06:53:17.356Z,21.50
2017-11-30T06:55:46.378Z,17.20
2017-11-30T06:58:15.071Z,23.90
2017-11-30T07:00:43.348Z,29.23
2017-11-30T07:03:11.579Z,19.03
2017-11-30T07:05:40.758Z,19.10
2017-11-30T07:08:09.019Z,16.63
2017-11-30T07:10:37.551Z,21.93
2017-11-30T07:13:06.590Z,15.33
2017-11-30T07:15:34.842Z,17.47
2017-11-30T07:18:03.125Z,18.93
2017-11-30T07:20:32.062Z,33.40
2017-11-30T07:23:00.318Z,27.80
2017-11-30T07:25:28.559Z,13.80
2017-11-30T07:27:56.819Z,13.67
2017-11-30T07:30:25.827Z,15.03
2017-11-30T07:32:54.086Z,18.60
2017-11-30T07:35:22.419Z,17.70
2017-11-30T07:37:50.659Z,16.77
2017-11-30T07:40:18.923Z,17.80
2017-11-30T07:42:47.355Z,15.40
2017-11-30T07:45:15.591Z,16.87
2017-11-30T07:47:43.840Z,16.40
2017-11-30T07:50:12.877Z,18.60
2017-11-30T07:52:41.115Z,16.07
2017-11-30T07:55:09.358Z,18.93
2017-11-30T07:57:37.639Z,22.33
2017-11-30T08:00:05.908Z,17.10
2017-11-30T08:02:34.151Z,15.90
2017-11-30T08:05:02.848Z,19.53
2017-11-30T08:07:31.156Z,16.63
2017-11-30T08:09:59.404Z,18.33
2017-11-30T08:12:27.914Z,18.00
2017-11-30T08:14:56.164Z,13.20
2017-11-30T08:17:24.412Z,15.00
2017-11-30T08:19:52.680Z,14.70
2017-11-30T08:22:20.931Z,14.93
2017-11-30T08:24:49.224Z,12.90
2017-11-30T08:27:18.852Z,16.23
2017-11-30T08:29:47.095Z,13.73
2017-11-30T08:32:15.419Z,18.23
2017-11-30T08:34:43.681Z,15.53
2017-11-30T08:37:11.947Z,13.30
2017-11-30T08:39:40.208Z,17.20
2017-11-30T08:42:08.491Z,17.17
2017-11-30T08:44:37.506Z,12.57
2017-11-30T08:47:05.757Z,17.10
2017-11-30T08:49:34.304Z,19.50
2017-11-30T08:52:02.548Z,21.37
2017-11-30T08:54:30.791Z,17.03
2017-11-30T08:56:59.060Z,16.73
2017-11-30T08:59:27.334Z,24.43
2017-11-30T09:01:55.583Z,18.83
2017-11-30T09:04:23.847Z,15.60
2017-11-30T09:06:52.087Z,17.97
2017-11-30T09:09:21.103Z,14.63
2017-11-30T09:11:49.437Z,18.73
2017-11-30T09:14:17.936Z,20.80
2017-11-30T09:16:46.179Z,17.20
2017-11-30T09:19:14.448Z,12.10
2017-11-30T09:21:42.701Z,14.60
2017-11-30T09:24:10.954Z,15.97
2017-11-30T09:26:39.983Z,17.50
2017-11-30T09:29:08.223Z,16.37
2017-11-30T09:31:36.463Z,14.73
2017-11-30T09:34:04.799Z,13.23
2017-11-30T09:36:33.043Z,14.57
2017-11-30T09:39:01.288Z,11.10
2017-11-30T09:41:29.542Z,9.13
2017-11-30T09:43:57.808Z,13.57
2017-11-30T09:46:26.052Z,14.60
2017-11-30T09:48:55.083Z,15.33
2017-11-30T09:51:23.361Z,14.57
2017-11-30T09:53:51.603Z,13.57
2017-11-30T09:56:20.292Z,10.57
2017-11-30T09:58:48.535Z,13.10
2017-11-30T10:01:16.780Z,13.63
2017-11-30T10:03:45.044Z,9.17
2017-11-30T10:06:13.288Z,12.33
2017-11-30T10:08:41.542Z,13.27
2017-11-30T10:11:09.815Z,12.40
2017-11-30T10:13:38.059Z,10.10
2017-11-30T10:16:06.771Z,12.77
2017-11-30T10:18:35.858Z,7.27
2017-11-30T10:21:04.096Z,11.53
2017-11-30T10:23:32.340Z,14.63
2017-11-30T10:26:01.383Z,14.03
2017-11-30T10:28:29.637Z,12.63
2017-11-30T10:30:57.877Z,10.47
2017-11-30T10:33:26.151Z,7.97
2017-11-30T10:35:54.524Z,12.40
2017-11-30T10:38:22.769Z,12.07
2017-11-30T10:40:51.350Z,7.33
2017-11-30T10:43:19.595Z,12.70
2017-11-30T10:45:47.840Z,13.77
2017-11-30T10:48:16.100Z,9.37
2017-11-30T10:50:44.679Z,9.93
2017-11-30T10:53:12.919Z,7.63
2017-11-30T10:55:41.943Z,11.20
2017-11-30T10:58:10.184Z,10.30
2017-11-30T11:00:38.420Z,7.60
2017-11-30T11:03:07.076Z,9.83
2017-11-30T11:05:35.321Z,6.13
2017-11-30T11:08:03.559Z,10.20
2017-11-30T11:10:31.817Z,8.47
2017-11-30T11:13:00.053Z,9.03
2017-11-30T11:15:28.286Z,11.53
2017-11-30T11:17:56.976Z,7.53
2017-11-30T11:20:25.210Z,8.20
2017-11-30T11:22:53.454Z,13.90
2017-11-30T11:25:22.691Z,12.80
2017-11-30T11:27:50.932Z,9.90
2017-11-30T11:30:19.943Z,14.10
2017-11-30T11:32:48.225Z,11.43
2017-11-30T11:35:16.467Z,11.60
2017-11-30T11:37:44.715Z,11.33
2017-11-30T11:40:12.998Z,10.23
2017-11-30T11:42:41.220Z,11.67
2017-11-30T11:45:09.524Z,9.97
2017-11-30T11:47:37.840Z,9.80
2017-11-30T11:50:06.075Z,7.00
2017-11-30T11:52:34.311Z,7.30
2017-11-30T11:55:03.352Z,7.00
2017-11-30T11:57:31.588Z,8.93
2017-11-30T11:59:59.818Z,10.70
2017-11-30T12:02:28.080Z,8.13
2017-11-30T12:04:56.324Z,10.53
2017-11-30T12:07:25.511Z,8.17
2017-11-30T12:09:54.711Z,7.40
2017-11-30T12:12:22.947Z,8.80
2017-11-30T12:14:51.180Z,9.63
2017-11-30T12:17:19.494Z,9.37
2017-11-30T12:19:48.185Z,9.60
2017-11-30T12:22:18.332Z,10.73
2017-11-30T12:24:46.595Z,8.23
2017-11-30T12:27:14.846Z,7.93
2017-11-30T12:29:43.079Z,12.20
2017-11-30T12:32:12.474Z,8.47
2017-11-30T12:34:40.725Z,8.63
2017-11-30T12:37:08.989Z,9.70
2017-11-30T12:39:37.227Z,9.10
2017-11-30T12:42:05.468Z,9.50
2017-11-30T12:44:33.709Z,10.30
2017-11-30T12:47:01.971Z,14.50
2017-11-30T12:49:30.229Z,12.13
2017-11-30T12:51:58.480Z,11.83
2017-11-30T12:54:27.844Z,12.80
2017-11-30T12:56:56.124Z,10.73
2017-11-30T12:59:24.399Z,13.53
2017-11-30T13:01:52.650Z,12.37
2017-11-30T13:04:20.954Z,14.93
2017-11-30T13:06:49.207Z,15.37
2017-11-30T13:09:17.478Z,13.73
2017-11-30T13:11:45.728Z,14.13
2017-11-30T13:14:13.965Z,21.73
2017-11-30T13:16:42.309Z,22.70
2017-11-30T13:19:10.558Z,14.87
2017-11-30T13:21:39.213Z,15.70
2017-11-30T13:24:07.482Z,18.10
2017-11-30T13:26:35.757Z,13.63
2017-11-30T13:29:04.006Z,11.23
2017-11-30T13:31:32.275Z,11.57
2017-11-30T13:34:00.513Z,10.83
2017-11-30T13:36:28.753Z,10.13
2017-11-30T13:38:57.161Z,13.40
2017-11-30T13:41:25.462Z,12.50
2017-11-30T13:43:53.706Z,26.33
2017-11-30T13:46:21.974Z,23.47
2017-11-30T13:48:50.226Z,21.30
2017-11-30T13:51:18.474Z,26.50
2017-11-30T13:53:46.746Z,18.93
2017-11-30T13:56:15.762Z,15.93
2017-11-30T13:58:44.010Z,14.03
2017-11-30T14:01:12.659Z,14.10
2017-11-30T14:03:40.931Z,16.77
2017-11-30T14:06:09.374Z,12.77
2017-11-30T14:08:38.856Z,12.23
2017-11-30T14:11:07.920Z,9.50
2017-11-30T14:13:36.307Z,13.03
2017-11-30T14:16:04.880Z,11.60
2017-11-30T14:18:34.193Z,12.83
2017-11-30T14:21:02.641Z,12.83
2017-11-30T14:23:31.013Z,10.97
2017-11-30T14:26:00.250Z,13.10
2017-11-30T14:28:28.550Z,12.77
2017-11-30T14:30:57.032Z,11.87
2017-11-30T14:33:26.053Z,14.63
2017-11-30T14:35:54.308Z,13.60
2017-11-30T14:38:22.811Z,13.60
2017-11-30T14:40:51.050Z,13.93
2017-11-30T14:43:19.470Z,14.37
2017-11-30T14:45:47.980Z,14.50
2017-11-30T14:48:16.223Z,14.23
2017-11-30T14:50:44.476Z,11.60
2017-11-30T14:53:13.505Z,10.80
2017-11-30T14:55:42.945Z,13.77
2017-11-30T14:58:11.197Z,15.07
2017-11-30T15:00:39.467Z,18.77
2017-11-30T15:03:07.777Z,16.30
2017-11-30T15:05:36.169Z,17.07
2017-11-30T15:08:04.606Z,16.47
2017-11-30T15:10:32.882Z,18.50
2017-11-30T15:13:01.344Z,18.83
2017-11-30T15:15:29.631Z,22.97
2017-11-30T15:17:58.087Z,21.60
2017-11-30T15:20:27.406Z,19.53
2017-11-30T15:22:55.938Z,19.30
2017-11-30T15:25:24.273Z,20.83
2017-11-30T15:27:52.540Z,20.30
2017-11-30T15:30:21.643Z,19.50
2017-11-30T15:32:51.490Z,20.43
2017-11-30T15:35:19.731Z,19.60
2017-11-30T15:37:48.191Z,15.97
2017-11-30T15:40:17.507Z,17.83
2017-11-30T15:42:45.769Z,15.70
2017-11-30T15:45:14.242Z,18.70
2017-11-30T15:47:43.408Z,20.10
2017-11-30T15:50:11.638Z,18.63
2017-11-30T15:52:40.102Z,18.47
2017-11-30T15:55:08.543Z,17.37
2017-11-30T15:57:36.860Z,17.80
2017-11-30T16:00:05.141Z,18.47
2017-11-30T16:02:34.217Z,16.90
2017-11-30T16:05:02.469Z,21.60
2017-11-30T16:07:31.241Z,18.17
2017-11-30T16:09:59.618Z,16.20
2017-11-30T16:12:28.017Z,16.00
2017-11-30T16:14:57.416Z,15.07
2017-11-30T16:17:29.962Z,25.57
2017-11-30T16:19:58.984Z,21.23
2017-11-30T16:22:27.253Z,16.90
2017-11-30T16:24:55.504Z,15.43
2017-11-30T16:27:23.925Z,16.07
2017-11-30T16:29:52.174Z,18.00
2017-11-30T16:32:20.888Z,15.83
2017-11-30T16:34:49.589Z,16.00
2017-11-30T16:37:17.922Z,18.30
2017-11-30T16:39:47.371Z,15.80
2017-11-30T16:42:15.634Z,14.80
2017-11-30T16:44:43.965Z,16.20
2017-11-30T16:47:13.217Z,18.30
2017-11-30T16:49:41.489Z,16.10
2017-11-30T16:52:10.146Z,15.40
2017-11-30T16:54:38.666Z,15.07
2017-11-30T16:57:07.496Z,16.23
2017-11-30T16:59:35.925Z,14.90
2017-11-30T17:02:04.154Z,15.00
2017-11-30T17:04:34.511Z,14.23
2017-11-30T17:07:03.148Z,14.07
2017-11-30T17:09:31.712Z,16.30
2017-11-30T17:12:00.260Z,16.27
2017-11-30T17:14:28.573Z,13.57
2017-11-30T17:16:56.846Z,15.80
2017-11-30T17:19:25.332Z,15.40
2017-11-30T17:21:54.101Z,16.30
2017-11-30T17:24:22.638Z,13.80
2017-11-30T17:26:51.675Z,17.20
2017-11-30T17:29:19.976Z,16.73
2017-11-30T17:31:48.374Z,14.63
2017-11-30T17:34:17.426Z,15.80
2017-11-30T17:36:46.633Z,14.93
2017-11-30T17:39:14.899Z,13.63
2017-11-30T17:41:44.443Z,16.90
2017-11-30T17:44:12.762Z,14.43
2017-11-30T17:46:41.998Z,14.73
2017-11-30T17:49:10.724Z,16.57
2017-11-30T17:51:39.749Z,16.10
2017-11-30T17:54:10.210Z,17.57
2017-11-30T17:56:38.630Z,13.33
2017-11-30T17:59:07.089Z,14.57
2017-11-30T18:01:38.454Z,14.17
2017-11-30T18:04:09.646Z,14.73
2017-11-30T18:06:49.671Z,13.53
2017-11-30T18:09:37.812Z,13.27
2017-11-30T18:12:06.657Z,14.20
2017-11-30T18:14:35.355Z,14.40
2017-11-30T18:17:03.863Z,14.43
2017-11-30T18:19:32.509Z,15.07
2017-11-30T18:22:01.801Z,15.17
2017-11-30T18:24:31.619Z,15.80
2017-11-30T18:27:00.070Z,16.10
2017-11-30T18:29:30.200Z,15.20
2017-11-30T18:31:58.723Z,15.80
2017-11-30T18:34:27.493Z,15.40
2017-11-30T18:36:55.975Z,18.77
2017-11-30T18:39:25.313Z,16.30
2017-11-30T18:41:54.587Z,16.20
2017-11-30T18:44:22.976Z,14.90
2017-11-30T18:46:51.440Z,15.67
2017-11-30T18:49:20.654Z,15.23
2017-11-30T18:51:50.865Z,16.53
2017-11-30T18:54:19.270Z,15.30
2017-11-30T18:56:48.295Z,17.47
2017-11-30T18:59:16.556Z,17.87
2017-11-30T19:01:45.018Z,15.50
2017-11-30T19:04:15.246Z,16.13
2017-11-30T19:06:44.514Z,15.77
2017-11-30T19:09:13.101Z,17.43
2017-11-30T19:11:42.562Z,17.60
2017-11-30T19:14:13.090Z,17.57
2017-11-30T19:16:42.361Z,16.90
2017-11-30T19:19:11.373Z,16.63
2017-11-30T19:21:40.631Z,18.33
2017-11-30T19:24:09.034Z,17.30
2017-11-30T19:26:38.059Z,16.93
2017-11-30T19:29:08.570Z,16.90
2017-11-30T19:31:36.994Z,15.13
2017-11-30T19:34:07.659Z,15.13
2017-11-30T19:36:36.118Z,14.70
2017-11-30T19:39:04.400Z,16.80
2017-11-30T19:41:33.800Z,17.43
2017-11-30T19:44:03.098Z,17.00
2017-11-30T19:46:31.885Z,17.30
2017-11-30T19:49:00.165Z,18.77
2017-11-30T19:51:28.942Z,16.83
2017-11-30T19:53:57.410Z,17.30
2017-11-30T19:56:26.865Z,17.20
2017-11-30T19:58:56.026Z,19.90
2017-11-30T20:01:24.298Z,17.10
2017-11-30T20:03:53.516Z,19.93
2017-11-30T20:06:21.936Z,15.37
2017-11-30T20:08:50.976Z,18.90
2017-11-30T20:11:21.610Z,16.83
2017-11-30T20:13:49.856Z,17.03
2017-11-30T20:16:18.329Z,17.10
2017-11-30T20:18:46.586Z,16.93
2017-11-30T20:21:15.856Z,16.23
2017-11-30T20:23:44.576Z,14.53
2017-11-30T20:26:14.774Z,14.97
2017-11-30T20:28:43.154Z,16.60
2017-11-30T20:31:11.595Z,14.50
2017-11-30T20:33:39.830Z,15.37
2017-11-30T20:36:08.123Z,16.00
2017-11-30T20:38:38.249Z,15.37
2017-11-30T20:41:06.538Z,14.30
2017-11-30T20:43:34.913Z,13.97
2017-11-30T20:46:03.528Z,17.97
2017-11-30T20:48:31.809Z,19.57
2017-11-30T20:51:02.238Z,21.33
2017-11-30T20:53:34.714Z,24.63
2017-11-30T20:56:02.960Z,17.00
2017-11-30T20:58:31.418Z,14.87
2017-11-30T21:01:01.116Z,15.90
2017-11-30T21:03:29.470Z,17.60
2017-11-30T21:05:57.799Z,17.57
2017-11-30T21:08:26.105Z,17.17
2017-11-30T21:10:54.399Z,17.50
2017-11-30T21:13:23.794Z,14.50
2017-11-30T21:15:52.303Z,14.90
2017-11-30T21:18:20.863Z,15.70
2017-11-30T21:20:49.315Z,14.50
2017-11-30T21:23:18.641Z,15.30
2017-11-30T21:25:46.946Z,21.77
2017-11-30T21:28:16.067Z,19.57
2017-11-30T21:30:44.318Z,13.50
2017-11-30T21:33:13.338Z,19.17
2017-11-30T21:35:41.673Z,15.67
2017-11-30T21:38:10.139Z,23.90
2017-11-30T21:40:38.604Z,11.80
2017-11-30T21:43:06.837Z,13.90
2017-11-30T21:45:36.177Z,23.33
2017-11-30T21:48:04.430Z,14.40
2017-11-30T21:50:32.681Z,16.40
2017-11-30T21:53:01.719Z,17.13
2017-11-30T21:55:29.960Z,15.13
2017-11-30T21:57:58.979Z,14.07
2017-11-30T22:00:27.334Z,13.50
2017-11-30T22:02:56.346Z,12.13
2017-11-30T22:05:24.589Z,12.63
2017-11-30T22:07:53.215Z,17.27
2017-11-30T22:10:21.466Z,13.03
2017-11-30T22:12:50.484Z,14.03
2017-11-30T22:15:18.755Z,14.03
2017-11-30T22:17:46.997Z,18.43
2017-11-30T22:20:16.013Z,15.37
2017-11-30T22:22:44.291Z,13.80
2017-11-30T22:25:13.327Z,12.10
2017-11-30T22:27:41.565Z,12.80
2017-11-30T22:30:09.881Z,13.80
2017-11-30T22:32:38.421Z,13.23
2017-11-30T22:35:06.662Z,19.10
2017-11-30T22:37:35.166Z,12.60
2017-11-30T22:40:04.190Z,12.70
2017-11-30T22:42:32.518Z,11.37
2017-11-30T22:45:00.786Z,11.43
2017-11-30T22:47:29.042Z,11.20
2017-11-30T22:49:57.293Z,14.30
2017-11-30T22:52:25.922Z,11.90
2017-11-30T22:54:54.194Z,17.50
2017-11-30T22:57:22.434Z,10.73
2017-11-30T22:59:50.826Z,9.33
2017-11-30T23:02:19.061Z,10.43
2017-11-30T23:04:48.069Z,12.00
2017-11-30T23:07:16.343Z,12.80
2017-11-30T23:09:45.346Z,13.20
2017-11-30T23:12:13.602Z,13.47
2017-11-30T23:14:42.158Z,11.30
2017-11-30T23:17:10.403Z,13.30
2017-11-30T23:19:38.646Z,10.53
2017-11-30T23:22:06.913Z,12.40
2017-11-30T23:24:35.930Z,13.70
2017-11-30T23:27:04.174Z,10.77
2017-11-30T23:29:32.438Z,10.90
2017-11-30T23:32:00.683Z,12.20
2017-11-30T23:34:29.113Z,12.53
2017-11-30T23:36:58.286Z,16.50
2017-11-30T23:39:26.538Z,13.13
2017-11-30T23:41:54.791Z,11.13
2017-11-30T23:44:23.057Z,12.57
2017-11-30T23:46:51.306Z,13.53
2017-11-30T23:49:19.557Z,13.87
2017-11-30T23:51:47.818Z,14.33
2017-11-30T23:54:16.070Z,13.00
2017-11-30T23:56:44.534Z,12.80
2017-11-30T23:59:13.721Z,12.33
